Time,TemperatureF,DewpointF,PressureIn,WindDirection,WindDirectionDegrees,WindSpeedMPH,WindSpeedGustMPH,Humidity,HourlyPrecipIn,Conditions,Clouds,dailyrainin,SoftwareType,DateUTC
2013-08-13 00:01:00,69.9,66.5,29.80,NW,309,0.0,0.0,89,0.00,,,0.00,WeatherCatV1.21B27,2013-08-13 04:01:00,
2013-08-13 00:02:00,69.9,66.5,29.80,NW,309,0.0,0.0,89,0.00,,,0.00,WeatherCatV1.21B27,2013-08-13 04:02:00,
2013-08-13 00:03:00,69.9,66.5,29.80,NW,309,0.0,0.0,89,0.00,,,0.00,WeatherCatV1.21B27,2013-08-13 04:03:00,
2013-08-13 00:08:00,69.9,66.5,29.80,NW,309,0.0,0.0,89,0.00,,,0.00,WeatherCatV1.21B27,2013-08-13 04:08:00,
2013-08-13 00:09:00,69.9,66.5,29.79,NW,309,0.0,0.0,89,0.00,,,0.00,WeatherCatV1.21B27,2013-08-13 04:09:00,
2013-08-13 00:11:00,69.9,66.5,29.79,NW,309,0.0,0.0,89,0.00,,,0.00,WeatherCatV1.21B27,2013-08-13 04:11:00,
2013-08-13 00:16:00,69.9,66.5,29.79,NW,309,0.0,0.0,89,0.00,,,0.00,WeatherCatV1.21B27,2013-08-13 04:16:00,
2013-08-13 00:21:00,70.0,66.6,29.79,NW,309,0.0,0.0,89,0.00,,,0.00,WeatherCatV1.21B27,2013-08-13 04:21:00,
2013-08-13 00:26:00,70.0,66.6,29.79,NW,309,0.0,0.0,89,0.00,,,0.00,WeatherCatV1.21B27,2013-08-13 04:26:00,
2013-08-13 00:31:00,70.0,66.6,29.80,NW,309,0.0,0.0,89,0.00,,,0.00,WeatherCatV1.21B27,2013-08-13 04:31:00,
2013-08-13 00:36:00,70.0,66.6,29.80,NW,309,0.0,0.0,89,0.00,,,0.00,WeatherCatV1.21B27,2013-08-13 04:36:00,
2013-08-13 00:41:00,70.0,66.6,29.80,NW,309,0.0,0.0,89,0.00,,,0.00,WeatherCatV1.21B27,2013-08-13 04:41:00,
2013-08-13 00:46:00,69.9,66.5,29.79,NW,309,0.0,0.0,89,0.00,,,0.00,WeatherCatV1.21B27,2013-08-13 04:46:00,
2013-08-13 00:51:00,70.0,66.6,29.80,NW,309,0.0,0.0,89,0.00,,,0.00,WeatherCatV1.21B27,2013-08-13 04:51:00,
2013-08-13 00:56:00,69.7,65.7,29.80,North,0,2.0,5.0,87,0.00,,,0.00,WeatherCatV1.21B27,2013-08-13 04:56:00,
2013-08-13 01:01:00,68.9,64.5,29.80,SW,227,0.0,0.0,86,0.00,,,0.00,WeatherCatV1.21B27,2013-08-13 05:01:00,
2013-08-13 01:06:00,68.9,64.5,29.79,North,10,0.0,5.0,86,0.00,,,0.00,WeatherCatV1.21B27,2013-08-13 05:06:00,
2013-08-13 01:11:00,69.0,65.0,29.79,ESE,113,0.0,0.0,87,0.00,,,0.00,WeatherCatV1.21B27,2013-08-13 05:11:00,
2013-08-13 01:16:00,68.9,64.5,29.78,SSE,149,1.0,5.0,86,0.00,,,0.00,WeatherCatV1.21B27,2013-08-13 05:16:00,
2013-08-13 01:21:00,68.8,64.8,29.79,South,186,3.0,4.0,87,1.88,,,0.04,WeatherCatV1.21B27,2013-08-13 05:21:00,
2013-08-13 01:26:00,68.5,64.8,29.82,WNW,294,4.0,11.0,88,9.00,,,0.23,WeatherCatV1.21B27,2013-08-13 05:26:00,
2013-08-13 01:31:00,67.5,64.1,29.83,WSW,254,5.0,12.0,89,3.95,,,0.61,WeatherCatV1.21B27,2013-08-13 05:31:00,
2013-08-13 01:35:00,66.9,63.9,29.83,SSW,205,5.0,5.0,90,3.45,,,0.00,WeatherCatV1.21B27,2013-08-13 05:35:00,
2013-08-13 01:36:00,66.5,63.5,29.83,SSW,202,0.0,9.0,90,1.51,,,0.77,WeatherCatV1.21B27,2013-08-13 05:36:00,
2013-08-13 01:40:00,66.6,63.6,29.83,SSW,204,5.0,9.0,90,1.89,,,0.00,WeatherCatV1.21B27,2013-08-13 05:40:00,
2013-08-13 01:45:00,66.4,63.7,29.82,SSW,202,2.0,9.0,91,2.36,,,0.00,WeatherCatV1.21B27,2013-08-13 05:45:00,
2013-08-13 01:50:00,66.3,63.6,29.80,SSE,158,0.0,1.0,91,0.95,,,0.00,WeatherCatV1.21B27,2013-08-13 05:50:00,
2013-08-13 01:55:00,66.1,63.4,29.80,SSE,158,0.0,0.0,91,0.68,,,0.00,WeatherCatV1.21B27,2013-08-13 05:55:00,
2013-08-13 02:00:00,66.0,63.3,29.80,SSE,158,0.0,0.0,91,0.28,,,0.00,WeatherCatV1.21B27,2013-08-13 06:00:00,
2013-08-13 02:05:00,65.8,63.1,29.80,SSE,158,0.0,0.0,91,0.09,,,0.00,WeatherCatV1.21B27,2013-08-13 06:05:00,
2013-08-13 02:10:00,65.7,63.0,29.81,SSE,158,0.0,0.0,91,0.05,,,0.00,WeatherCatV1.21B27,2013-08-13 06:10:00,
2013-08-13 02:15:00,65.5,62.8,29.81,SSE,158,0.0,0.0,91,0.05,,,0.00,WeatherCatV1.21B27,2013-08-13 06:15:00,
2013-08-13 02:20:00,65.4,62.7,29.80,SSE,158,0.0,0.0,91,0.05,,,0.00,WeatherCatV1.21B27,2013-08-13 06:20:00,
2013-08-13 02:25:00,65.3,62.9,29.80,SSE,158,0.0,0.0,92,0.15,,,0.00,WeatherCatV1.21B27,2013-08-13 06:25:00,
2013-08-13 02:30:00,65.3,62.9,29.80,SSE,158,0.0,0.0,92,0.15,,,0.00,WeatherCatV1.21B27,2013-08-13 06:30:00,
2013-08-13 02:35:00,65.3,62.9,29.79,SSE,158,0.0,0.0,92,0.11,,,0.00,WeatherCatV1.21B27,2013-08-13 06:35:00,
2013-08-13 02:40:00,65.3,62.9,29.80,SSE,158,0.0,0.0,92,0.05,,,0.00,WeatherCatV1.21B27,2013-08-13 06:40:00,
2013-08-13 02:45:00,65.2,62.8,29.79,SSE,158,0.0,0.0,92,0.04,,,0.00,WeatherCatV1.21B27,2013-08-13 06:45:00,
2013-08-13 02:50:00,65.2,62.8,29.79,SSE,158,0.0,0.0,92,0.04,,,0.00,WeatherCatV1.21B27,2013-08-13 06:50:00,
2013-08-13 02:55:00,65.2,62.8,29.79,SSE,158,0.0,0.0,92,0.04,,,0.00,WeatherCatV1.21B27,2013-08-13 06:55:00,
2013-08-13 03:00:00,65.1,62.7,29.78,SSE,158,0.0,0.0,92,0.04,,,0.00,WeatherCatV1.21B27,2013-08-13 07:00:00,
2013-08-13 03:05:00,65.1,62.7,29.78,SSE,158,0.0,0.0,92,0.00,,,0.00,WeatherCatV1.21B27,2013-08-13 07:05:00,
2013-08-13 03:10:00,65.0,62.6,29.78,SSE,158,0.0,0.0,92,0.00,,,0.00,WeatherCatV1.21B27,2013-08-13 07:10:00,
2013-08-13 03:15:00,65.0,62.6,29.78,SSE,158,0.0,0.0,92,0.00,,,0.00,WeatherCatV1.21B27,2013-08-13 07:15:00,
2013-08-13 03:20:00,65.0,62.6,29.77,SSE,158,0.0,0.0,92,0.00,,,0.00,WeatherCatV1.21B27,2013-08-13 07:20:00,
2013-08-13 03:25:00,65.0,62.6,29.77,SSE,158,0.0,0.0,92,0.00,,,0.00,WeatherCatV1.21B27,2013-08-13 07:25:00,
2013-08-13 03:30:00,65.0,62.6,29.77,SSE,158,0.0,0.0,92,0.00,,,0.00,WeatherCatV1.21B27,2013-08-13 07:30:00,
2013-08-13 03:35:00,65.2,62.8,29.78,SSE,158,0.0,0.0,92,0.00,,,0.00,WeatherCatV1.21B27,2013-08-13 07:35:00,
2013-08-13 03:40:00,65.2,62.8,29.77,SSE,158,0.0,0.0,92,0.00,,,0.00,WeatherCatV1.21B27,2013-08-13 07:40:00,
2013-08-13 03:45:00,65.2,62.8,29.77,SSE,158,0.0,0.0,92,0.00,,,0.00,WeatherCatV1.21B27,2013-08-13 07:45:00,
2013-08-13 03:50:00,65.2,62.8,29.77,SSE,158,0.0,0.0,92,0.00,,,0.00,WeatherCatV1.21B27,2013-08-13 07:50:00,
2013-08-13 03:55:00,65.2,62.8,29.77,SSE,158,0.0,0.0,92,0.00,,,0.00,WeatherCatV1.21B27,2013-08-13 07:55:00,
2013-08-13 04:00:00,65.1,62.7,29.77,SSE,158,0.0,0.0,92,0.00,,,0.00,WeatherCatV1.21B27,2013-08-13 08:00:00,
2013-08-13 04:05:00,65.1,62.7,29.76,SSE,158,0.0,0.0,92,0.00,,,0.00,WeatherCatV1.21B27,2013-08-13 08:05:00,
2013-08-13 04:10:00,65.2,62.8,29.76,SSE,158,0.0,0.0,92,0.00,,,0.00,WeatherCatV1.21B27,2013-08-13 08:10:00,
2013-08-13 04:15:00,65.2,62.8,29.76,SSE,158,0.0,0.0,92,0.00,,,0.00,WeatherCatV1.21B27,2013-08-13 08:15:00,
2013-08-13 04:20:00,65.1,62.7,29.76,SSE,158,0.0,0.0,92,0.00,,,0.00,WeatherCatV1.21B27,2013-08-13 08:20:00,
2013-08-13 04:25:00,65.1,62.7,29.76,SSE,158,0.0,0.0,92,0.00,,,0.00,WeatherCatV1.21B27,2013-08-13 08:25:00,
2013-08-13 04:30:00,65.0,62.9,29.75,SSE,158,0.0,0.0,93,0.00,,,0.00,WeatherCatV1.21B27,2013-08-13 08:30:00,
2013-08-13 04:35:00,65.0,62.9,29.75,SSE,158,0.0,0.0,93,0.00,,,0.00,WeatherCatV1.21B27,2013-08-13 08:35:00,
2013-08-13 04:40:00,64.9,62.8,29.76,SSE,158,0.0,0.0,93,0.00,,,0.00,WeatherCatV1.21B27,2013-08-13 08:40:00,
2013-08-13 04:45:00,64.8,62.7,29.76,SSE,158,0.0,0.0,93,0.00,,,0.00,WeatherCatV1.21B27,2013-08-13 08:45:00,
2013-08-13 04:50:00,64.7,62.3,29.76,SSE,158,0.0,0.0,92,0.00,,,0.00,WeatherCatV1.21B27,2013-08-13 08:50:00,
2013-08-13 04:55:00,64.5,62.1,29.76,SSE,158,0.0,0.0,92,0.00,,,0.00,WeatherCatV1.21B27,2013-08-13 08:55:00,
2013-08-13 05:00:00,64.5,62.4,29.76,SSE,158,0.0,0.0,93,0.00,,,0.00,WeatherCatV1.21B27,2013-08-13 09:00:00,
2013-08-13 05:05:00,64.4,62.3,29.76,SSE,158,0.0,0.0,93,0.00,,,0.00,WeatherCatV1.21B27,2013-08-13 09:05:00,
2013-08-13 05:10:00,64.3,62.2,29.76,SSE,158,0.0,0.0,93,0.00,,,0.00,WeatherCatV1.21B27,2013-08-13 09:10:00,
2013-08-13 05:15:00,64.3,62.2,29.76,SSE,158,0.0,0.0,93,0.00,,,0.00,WeatherCatV1.21B27,2013-08-13 09:15:00,
2013-08-13 05:20:00,64.2,62.1,29.76,SSE,158,0.0,0.0,93,0.00,,,0.00,WeatherCatV1.21B27,2013-08-13 09:20:00,
2013-08-13 05:25:00,64.1,62.0,29.76,SSE,158,0.0,0.0,93,0.00,,,0.00,WeatherCatV1.21B27,2013-08-13 09:25:00,
2013-08-13 05:30:00,64.1,62.0,29.76,SSE,158,0.0,0.0,93,0.00,,,0.00,WeatherCatV1.21B27,2013-08-13 09:30:00,
2013-08-13 05:35:00,64.0,61.9,29.76,SSE,158,0.0,0.0,93,0.00,,,0.00,WeatherCatV1.21B27,2013-08-13 09:35:00,
2013-08-13 05:40:00,64.0,61.9,29.76,SSE,158,0.0,0.0,93,0.00,,,0.00,WeatherCatV1.21B27,2013-08-13 09:40:00,
2013-08-13 05:45:00,64.1,62.0,29.77,SSE,158,0.0,0.0,93,0.00,,,0.00,WeatherCatV1.21B27,2013-08-13 09:45:00,
2013-08-13 05:50:00,64.4,62.3,29.77,SSE,158,0.0,0.0,93,0.00,,,0.00,WeatherCatV1.21B27,2013-08-13 09:50:00,
2013-08-13 05:55:00,64.4,62.3,29.76,SSE,158,0.0,0.0,93,0.00,,,0.00,WeatherCatV1.21B27,2013-08-13 09:55:00,
2013-08-13 06:00:00,64.4,62.3,29.76,SSE,158,0.0,0.0,93,0.00,,,0.00,WeatherCatV1.21B27,2013-08-13 10:00:00,
2013-08-13 06:05:00,64.4,62.3,29.76,SSE,158,0.0,0.0,93,0.00,,,0.00,WeatherCatV1.21B27,2013-08-13 10:05:00,
2013-08-13 06:10:00,64.4,62.3,29.76,SSE,158,0.0,0.0,93,0.00,,,0.00,WeatherCatV1.21B27,2013-08-13 10:10:00,
2013-08-13 06:15:00,64.3,62.2,29.76,SSE,158,0.0,0.0,93,0.00,,,0.00,WeatherCatV1.21B27,2013-08-13 10:15:00,
2013-08-13 06:20:00,64.3,62.2,29.76,SSE,158,0.0,0.0,93,0.00,,,0.00,WeatherCatV1.21B27,2013-08-13 10:20:00,
2013-08-13 06:25:00,64.5,62.4,29.77,SSE,158,0.0,0.0,93,0.00,,,0.00,WeatherCatV1.21B27,2013-08-13 10:25:00,
2013-08-13 06:30:00,64.7,62.6,29.77,SSE,158,0.0,0.0,93,0.00,,,0.00,WeatherCatV1.21B27,2013-08-13 10:30:00,
2013-08-13 06:35:00,64.8,62.7,29.77,SSE,158,0.0,0.0,93,0.00,,,0.00,WeatherCatV1.21B27,2013-08-13 10:35:00,
2013-08-13 06:40:00,64.7,62.6,29.77,SSE,158,0.0,0.0,93,0.00,,,0.00,WeatherCatV1.21B27,2013-08-13 10:40:00,
2013-08-13 06:45:00,64.8,62.7,29.77,SSE,158,0.0,0.0,93,0.00,,,0.00,WeatherCatV1.21B27,2013-08-13 10:45:00,
2013-08-13 06:50:00,64.8,62.7,29.77,SSE,158,0.0,0.0,93,0.00,,,0.00,WeatherCatV1.21B27,2013-08-13 10:50:00,
2013-08-13 06:55:00,64.9,62.8,29.77,SSE,158,0.0,0.0,93,0.00,,,0.00,WeatherCatV1.21B27,2013-08-13 10:55:00,
2013-08-13 07:00:00,65.0,62.9,29.77,SSE,158,0.0,0.0,93,0.00,,,0.00,WeatherCatV1.21B27,2013-08-13 11:00:00,
2013-08-13 07:05:00,65.1,63.0,29.77,SSE,158,0.0,0.0,93,0.00,,,0.00,WeatherCatV1.21B27,2013-08-13 11:05:00,
2013-08-13 07:10:00,65.9,63.8,29.77,SW,225,0.0,3.0,93,0.00,,,0.00,WeatherCatV1.21B27,2013-08-13 11:10:00,
2013-08-13 07:15:00,66.6,64.5,29.78,WSW,248,0.0,2.0,93,0.00,,,0.00,WeatherCatV1.21B27,2013-08-13 11:15:00,
2013-08-13 07:20:00,66.9,65.1,29.78,WSW,248,1.0,3.0,94,0.00,,,0.00,WeatherCatV1.21B27,2013-08-13 11:20:00,
2013-08-13 07:25:00,67.1,65.0,29.78,WSW,248,1.0,4.0,93,0.00,,,0.00,WeatherCatV1.21B27,2013-08-13 11:25:00,
2013-08-13 07:30:00,67.1,65.0,29.78,SSE,158,0.0,2.0,93,0.00,,,0.00,WeatherCatV1.21B27,2013-08-13 11:30:00,
2013-08-13 07:35:00,67.2,65.1,29.78,SW,225,1.0,4.0,93,0.00,,,0.00,WeatherCatV1.21B27,2013-08-13 11:35:00,
2013-08-13 07:40:00,67.2,65.1,29.78,SW,225,1.0,4.0,93,0.00,,,0.00,WeatherCatV1.21B27,2013-08-13 11:40:00,
2013-08-13 07:45:00,67.2,65.1,29.78,SW,225,0.0,3.0,93,0.00,,,0.00,WeatherCatV1.21B27,2013-08-13 11:45:00,
2013-08-13 07:50:00,67.2,65.1,29.78,WNW,292,1.0,5.0,93,0.00,,,0.00,WeatherCatV1.21B27,2013-08-13 11:50:00,
2013-08-13 07:55:00,67.3,65.2,29.79,WSW,248,1.0,4.0,93,0.00,,,0.00,WeatherCatV1.21B27,2013-08-13 11:55:00,
2013-08-13 08:00:00,67.2,65.1,29.79,West,270,2.0,5.0,93,0.00,,,0.00,WeatherCatV1.21B27,2013-08-13 12:00:00,
2013-08-13 08:05:00,66.8,64.4,29.79,West,270,1.0,6.0,92,0.00,,,0.00,WeatherCatV1.21B27,2013-08-13 12:05:00,
2013-08-13 08:10:00,66.4,64.0,29.79,WSW,248,2.0,9.0,92,0.00,,,0.00,WeatherCatV1.21B27,2013-08-13 12:10:00,
2013-08-13 08:15:00,66.2,63.8,29.80,SW,225,1.0,7.0,92,0.00,,,0.00,WeatherCatV1.21B27,2013-08-13 12:15:00,
2013-08-13 08:20:00,66.1,63.7,29.80,SW,225,1.0,7.0,92,0.00,,,0.00,WeatherCatV1.21B27,2013-08-13 12:20:00,
2013-08-13 08:25:00,66.0,63.6,29.80,West,270,2.0,6.0,92,0.00,,,0.00,WeatherCatV1.21B27,2013-08-13 12:25:00,
2013-08-13 08:30:00,66.0,63.6,29.80,SW,225,1.0,3.0,92,0.00,,,0.00,WeatherCatV1.21B27,2013-08-13 12:30:00,
2013-08-13 08:35:00,66.0,63.6,29.81,SW,225,1.0,5.0,92,0.00,,,0.00,WeatherCatV1.21B27,2013-08-13 12:35:00,
2013-08-13 08:40:00,66.0,63.6,29.81,SSW,202,1.0,4.0,92,0.00,,,0.00,WeatherCatV1.21B27,2013-08-13 12:40:00,
2013-08-13 08:45:00,66.0,63.3,29.81,SW,225,2.0,6.0,91,0.00,,,0.00,WeatherCatV1.21B27,2013-08-13 12:45:00,
2013-08-13 08:50:00,66.1,63.4,29.81,South,180,1.0,6.0,91,0.00,,,0.00,WeatherCatV1.21B27,2013-08-13 12:50:00,
2013-08-13 08:55:00,66.1,63.4,29.81,NNE,22,1.0,5.0,91,0.00,,,0.00,WeatherCatV1.21B27,2013-08-13 12:55:00,
2013-08-13 09:00:00,66.2,63.5,29.81,NNE,22,1.0,9.0,91,0.00,,,0.00,WeatherCatV1.21B27,2013-08-13 13:00:00,
2013-08-13 09:05:00,66.1,63.1,29.81,SW,225,2.0,6.0,90,0.00,,,0.00,WeatherCatV1.21B27,2013-08-13 13:05:00,
2013-08-13 09:10:00,66.1,63.1,29.82,South,180,2.0,4.0,90,0.00,,,0.00,WeatherCatV1.21B27,2013-08-13 13:10:00,
2013-08-13 09:15:00,66.1,63.1,29.82,NE,45,0.0,4.0,90,0.00,,,0.00,WeatherCatV1.21B27,2013-08-13 13:15:00,
2013-08-13 09:20:00,66.2,63.2,29.82,NNE,22,0.0,2.0,90,0.00,,,0.00,WeatherCatV1.21B27,2013-08-13 13:20:00,
2013-08-13 09:25:00,66.4,63.0,29.82,North,0,2.0,5.0,89,0.00,,,0.00,WeatherCatV1.21B27,2013-08-13 13:25:00,
2013-08-13 09:30:00,66.6,63.2,29.82,SSW,202,1.0,9.0,89,0.00,,,0.00,WeatherCatV1.21B27,2013-08-13 13:30:00,
2013-08-13 09:35:00,66.6,62.9,29.82,North,0,1.0,6.0,88,0.00,,,0.00,WeatherCatV1.21B27,2013-08-13 13:35:00,
2013-08-13 09:40:00,66.8,63.1,29.83,SSW,202,1.0,6.0,88,0.00,,,0.00,WeatherCatV1.21B27,2013-08-13 13:40:00,
2013-08-13 09:45:00,66.9,62.9,29.83,WSW,248,1.0,6.0,87,0.00,,,0.00,WeatherCatV1.21B27,2013-08-13 13:45:00,
2013-08-13 09:50:00,67.0,62.7,29.83,West,270,1.0,4.0,86,0.00,,,0.00,WeatherCatV1.21B27,2013-08-13 13:50:00,
2013-08-13 09:55:00,66.9,62.6,29.83,North,0,1.0,7.0,86,0.00,,,0.00,WeatherCatV1.21B27,2013-08-13 13:55:00,
2013-08-13 10:00:00,66.7,62.4,29.83,North,0,1.0,5.0,86,0.00,,,0.00,WeatherCatV1.21B27,2013-08-13 14:00:00,
2013-08-13 10:05:00,66.6,62.3,29.83,SW,225,1.0,5.0,86,0.00,,,0.00,WeatherCatV1.21B27,2013-08-13 14:05:00,
2013-08-13 10:10:00,66.5,61.8,29.83,North,0,1.0,5.0,85,0.00,,,0.00,WeatherCatV1.21B27,2013-08-13 14:10:00,
2013-08-13 10:15:00,66.4,61.8,29.84,WSW,248,1.0,5.0,85,0.00,,,0.00,WeatherCatV1.21B27,2013-08-13 14:15:00,
2013-08-13 10:20:00,66.3,61.7,29.84,NNE,22,2.0,6.0,85,0.00,,,0.00,WeatherCatV1.21B27,2013-08-13 14:20:00,
2013-08-13 10:25:00,66.3,61.3,29.84,WNW,292,1.0,6.0,84,0.00,,,0.00,WeatherCatV1.21B27,2013-08-13 14:25:00,
2013-08-13 10:30:00,66.3,61.0,29.85,SW,225,2.0,10.0,83,0.00,,,0.00,WeatherCatV1.21B27,2013-08-13 14:30:00,
2013-08-13 10:35:00,66.3,61.0,29.85,SW,225,0.0,4.0,83,0.00,,,0.00,WeatherCatV1.21B27,2013-08-13 14:35:00,
2013-08-13 10:40:00,66.0,60.7,29.85,West,270,2.0,7.0,83,0.00,,,0.00,WeatherCatV1.21B27,2013-08-13 14:40:00,
2013-08-13 10:45:00,65.9,60.6,29.86,SW,225,1.0,11.0,83,0.00,,,0.00,WeatherCatV1.21B27,2013-08-13 14:45:00,
2013-08-13 10:50:00,65.8,60.5,29.86,WNW,292,2.0,5.0,83,0.00,,,0.00,WeatherCatV1.21B27,2013-08-13 14:50:00,
2013-08-13 10:55:00,65.9,60.6,29.86,West,270,1.0,4.0,83,0.00,,,0.00,WeatherCatV1.21B27,2013-08-13 14:55:00,
2013-08-13 11:00:00,65.8,60.2,29.87,West,270,2.0,6.0,82,0.00,,,0.00,WeatherCatV1.21B27,2013-08-13 15:00:00,
2013-08-13 11:05:00,65.8,60.2,29.87,West,270,2.0,6.0,82,0.00,,,0.00,WeatherCatV1.21B27,2013-08-13 15:05:00,
2013-08-13 11:10:00,65.9,60.2,29.87,WSW,248,1.0,7.0,82,0.00,,,0.00,WeatherCatV1.21B27,2013-08-13 15:10:00,
2013-08-13 11:15:00,66.0,60.0,29.87,WSW,248,2.0,10.0,81,0.00,,,0.00,WeatherCatV1.21B27,2013-08-13 15:15:00,
2013-08-13 11:20:00,65.9,59.5,29.87,SW,225,1.0,9.0,80,0.00,,,0.00,WeatherCatV1.21B27,2013-08-13 15:20:00,
2013-08-13 11:25:00,65.9,59.2,29.87,SW,225,2.0,7.0,79,0.00,,,0.00,WeatherCatV1.21B27,2013-08-13 15:25:00,
2013-08-13 11:30:00,65.9,58.8,29.87,WSW,248,2.0,6.0,78,0.00,,,0.00,WeatherCatV1.21B27,2013-08-13 15:30:00,
2013-08-13 11:35:00,66.1,59.0,29.87,SW,225,1.0,5.0,78,0.00,,,0.00,WeatherCatV1.21B27,2013-08-13 15:35:00,
2013-08-13 11:40:00,66.3,59.2,29.87,WSW,248,1.0,5.0,78,0.00,,,0.00,WeatherCatV1.21B27,2013-08-13 15:40:00,
2013-08-13 11:45:00,66.3,58.5,29.87,West,270,1.0,9.0,76,0.00,,,0.00,WeatherCatV1.21B27,2013-08-13 15:45:00,
2013-08-13 11:50:00,66.3,58.9,29.87,SW,225,1.0,6.0,77,0.00,,,0.00,WeatherCatV1.21B27,2013-08-13 15:50:00,
2013-08-13 11:55:00,66.2,58.8,29.87,West,270,2.0,6.0,77,0.00,,,0.00,WeatherCatV1.21B27,2013-08-13 15:55:00,
2013-08-13 12:00:00,66.1,59.0,29.87,WSW,248,2.0,5.0,78,0.00,,,0.00,WeatherCatV1.21B27,2013-08-13 16:00:00,
2013-08-13 12:05:00,66.1,59.4,29.87,SW,225,1.0,3.0,79,0.00,,,0.00,WeatherCatV1.21B27,2013-08-13 16:05:00,
2013-08-13 12:10:00,66.0,59.3,29.87,WSW,248,2.0,10.0,79,0.00,,,0.00,WeatherCatV1.21B27,2013-08-13 16:10:00,
2013-08-13 12:15:00,65.9,58.8,29.87,WSW,248,1.0,4.0,78,0.00,,,0.00,WeatherCatV1.21B27,2013-08-13 16:15:00,
2013-08-13 12:20:00,65.8,59.1,29.87,WSW,248,2.0,5.0,79,0.00,,,0.00,WeatherCatV1.21B27,2013-08-13 16:20:00,
2013-08-13 12:25:00,65.9,59.2,29.87,SW,225,1.0,5.0,79,0.00,,,0.00,WeatherCatV1.21B27,2013-08-13 16:25:00,
2013-08-13 12:30:00,66.0,58.2,29.87,West,270,1.0,5.0,76,0.00,,,0.00,WeatherCatV1.21B27,2013-08-13 16:30:00,
2013-08-13 12:35:00,66.4,58.6,29.88,WSW,248,1.0,7.0,76,0.00,,,0.00,WeatherCatV1.21B27,2013-08-13 16:35:00,
2013-08-13 12:40:00,66.4,57.8,29.88,WNW,292,2.0,6.0,74,0.00,,,0.00,WeatherCatV1.21B27,2013-08-13 16:40:00,
2013-08-13 12:45:00,66.4,58.6,29.88,WSW,248,1.0,4.0,76,0.00,,,0.00,WeatherCatV1.21B27,2013-08-13 16:45:00,
2013-08-13 12:50:00,66.6,58.4,29.87,West,270,1.0,5.0,75,0.00,,,0.00,WeatherCatV1.21B27,2013-08-13 16:50:00,
2013-08-13 12:55:00,66.9,58.7,29.88,SW,225,1.0,6.0,75,0.00,,,0.00,WeatherCatV1.21B27,2013-08-13 16:55:00,
2013-08-13 13:00:00,66.8,59.0,29.87,West,270,2.0,5.0,76,0.00,,,0.00,WeatherCatV1.21B27,2013-08-13 17:00:00,
2013-08-13 13:05:00,66.7,58.9,29.88,West,270,2.0,11.0,76,0.00,,,0.00,WeatherCatV1.21B27,2013-08-13 17:05:00,
2013-08-13 13:10:00,66.5,58.7,29.88,WSW,248,2.0,7.0,76,0.00,,,0.00,WeatherCatV1.21B27,2013-08-13 17:10:00,
2013-08-13 13:15:00,66.6,58.8,29.88,WSW,248,2.0,14.0,76,0.00,,,0.00,WeatherCatV1.21B27,2013-08-13 17:15:00,
2013-08-13 13:20:00,66.6,58.0,29.88,SW,225,2.0,6.0,74,0.00,,,0.00,WeatherCatV1.21B27,2013-08-13 17:20:00,
2013-08-13 13:25:00,66.7,58.5,29.88,SSW,202,2.0,5.0,75,0.00,,,0.00,WeatherCatV1.21B27,2013-08-13 17:25:00,
2013-08-13 13:30:00,66.6,58.0,29.88,West,270,2.0,9.0,74,0.00,,,0.00,WeatherCatV1.21B27,2013-08-13 17:30:00,
2013-08-13 13:35:00,66.4,57.8,29.88,WSW,248,1.0,7.0,74,0.00,,,0.00,WeatherCatV1.21B27,2013-08-13 17:35:00,
2013-08-13 13:40:00,66.3,57.8,29.89,WSW,248,1.0,6.0,74,0.00,,,0.00,WeatherCatV1.21B27,2013-08-13 17:40:00,
2013-08-13 13:45:00,66.3,57.4,29.89,WNW,292,1.0,5.0,73,0.00,,,0.00,WeatherCatV1.21B27,2013-08-13 17:45:00,
2013-08-13 13:50:00,66.2,57.7,29.88,West,270,1.0,3.0,74,0.00,,,0.00,WeatherCatV1.21B27,2013-08-13 17:50:00,
2013-08-13 13:55:00,66.2,57.7,29.89,WNW,292,1.0,10.0,74,0.00,,,0.00,WeatherCatV1.21B27,2013-08-13 17:55:00,
2013-08-13 14:00:00,66.1,57.6,29.89,SW,225,1.0,7.0,74,0.00,,,0.00,WeatherCatV1.21B27,2013-08-13 18:00:00,
2013-08-13 14:05:00,66.2,57.7,29.89,WNW,292,1.0,5.0,74,0.00,,,0.00,WeatherCatV1.21B27,2013-08-13 18:05:00,
2013-08-13 14:10:00,66.2,57.3,29.89,WNW,292,3.0,9.0,73,0.00,,,0.00,WeatherCatV1.21B27,2013-08-13 18:10:00,
2013-08-13 14:15:00,66.0,56.7,29.89,WSW,248,3.0,10.0,72,0.00,,,0.00,WeatherCatV1.21B27,2013-08-13 18:15:00,
2013-08-13 14:20:00,65.8,56.5,29.89,SW,225,3.0,10.0,72,0.00,,,0.00,WeatherCatV1.21B27,2013-08-13 18:20:00,
2013-08-13 14:25:00,65.7,56.4,29.89,West,270,2.0,9.0,72,0.00,,,0.00,WeatherCatV1.21B27,2013-08-13 18:25:00,
2013-08-13 14:30:00,65.8,56.1,29.89,West,270,2.0,7.0,71,0.00,,,0.00,WeatherCatV1.21B27,2013-08-13 18:30:00,
2013-08-13 14:35:00,65.9,56.2,29.90,WSW,248,2.0,10.0,71,0.00,,,0.00,WeatherCatV1.21B27,2013-08-13 18:35:00,
2013-08-13 14:40:00,66.0,55.9,29.90,West,270,2.0,6.0,70,0.00,,,0.00,WeatherCatV1.21B27,2013-08-13 18:40:00,
2013-08-13 14:45:00,66.4,55.5,29.90,West,270,3.0,12.0,68,0.00,,,0.00,WeatherCatV1.21B27,2013-08-13 18:45:00,
2013-08-13 14:50:00,66.7,55.4,29.89,SSW,202,2.0,9.0,67,0.00,,,0.00,WeatherCatV1.21B27,2013-08-13 18:50:00,
2013-08-13 14:55:00,66.8,54.6,29.90,West,270,2.0,6.0,65,0.00,,,0.00,WeatherCatV1.21B27,2013-08-13 18:55:00,
2013-08-13 15:00:00,66.7,55.0,29.90,West,270,1.0,5.0,66,0.00,,,0.00,WeatherCatV1.21B27,2013-08-13 19:00:00,
2013-08-13 15:05:00,66.9,55.2,29.90,SW,225,2.0,9.0,66,0.00,,,0.00,WeatherCatV1.21B27,2013-08-13 19:05:00,
2013-08-13 15:10:00,67.5,55.7,29.90,WNW,292,1.0,5.0,66,0.00,,,0.00,WeatherCatV1.21B27,2013-08-13 19:10:00,
2013-08-13 15:15:00,67.4,55.2,29.90,SW,225,2.0,6.0,65,0.00,,,0.00,WeatherCatV1.21B27,2013-08-13 19:15:00,
2013-08-13 15:20:00,67.0,55.7,29.90,WNW,292,2.0,9.0,67,0.00,,,0.00,WeatherCatV1.21B27,2013-08-13 19:20:00,
2013-08-13 15:25:00,66.7,55.0,29.90,WNW,292,3.0,9.0,66,0.00,,,0.00,WeatherCatV1.21B27,2013-08-13 19:25:00,
2013-08-13 15:30:00,66.9,54.7,29.90,SW,225,1.0,5.0,65,0.00,,,0.00,WeatherCatV1.21B27,2013-08-13 19:30:00,
2013-08-13 15:35:00,66.8,54.6,29.90,WSW,248,2.0,10.0,65,0.00,,,0.00,WeatherCatV1.21B27,2013-08-13 19:35:00,
2013-08-13 15:40:00,67.6,55.8,29.90,NW,315,2.0,14.0,66,0.00,,,0.00,WeatherCatV1.21B27,2013-08-13 19:40:00,
2013-08-13 15:45:00,67.5,54.5,29.90,SW,225,3.0,6.0,63,0.00,,,0.00,WeatherCatV1.21B27,2013-08-13 19:45:00,
2013-08-13 15:50:00,67.5,54.9,29.90,West,270,3.0,14.0,64,0.00,,,0.00,WeatherCatV1.21B27,2013-08-13 19:50:00,
2013-08-13 15:55:00,67.5,54.9,29.90,WSW,248,2.0,6.0,64,0.00,,,0.00,WeatherCatV1.21B27,2013-08-13 19:55:00,
2013-08-13 16:00:00,67.4,54.8,29.90,WSW,248,2.0,10.0,64,0.00,,,0.00,WeatherCatV1.21B27,2013-08-13 20:00:00,
2013-08-13 16:05:00,67.6,55.0,29.91,SW,225,1.0,6.0,64,0.00,,,0.00,WeatherCatV1.21B27,2013-08-13 20:05:00,
2013-08-13 16:10:00,68.1,54.1,29.90,WNW,292,2.0,6.0,61,0.00,,,0.00,WeatherCatV1.21B27,2013-08-13 20:10:00,
2013-08-13 16:15:00,67.9,54.4,29.91,West,270,2.0,6.0,62,0.00,,,0.00,WeatherCatV1.21B27,2013-08-13 20:15:00,
2013-08-13 16:20:00,67.5,53.6,29.91,WNW,292,2.0,10.0,61,0.00,,,0.00,WeatherCatV1.21B27,2013-08-13 20:20:00,
2013-08-13 16:25:00,67.3,53.8,29.91,WSW,248,2.0,7.0,62,0.00,,,0.00,WeatherCatV1.21B27,2013-08-13 20:25:00,
2013-08-13 16:30:00,67.2,52.4,29.91,WNW,292,3.0,11.0,59,0.00,,,0.00,WeatherCatV1.21B27,2013-08-13 20:30:00,
2013-08-13 16:35:00,67.6,53.7,29.90,West,270,2.0,7.0,61,0.00,,,0.00,WeatherCatV1.21B27,2013-08-13 20:35:00,
2013-08-13 16:40:00,67.6,52.3,29.91,WSW,248,2.0,7.0,58,0.00,,,0.00,WeatherCatV1.21B27,2013-08-13 20:40:00,
2013-08-13 16:45:00,67.8,53.8,29.91,West,270,3.0,11.0,61,0.00,,,0.00,WeatherCatV1.21B27,2013-08-13 20:45:00,
2013-08-13 16:50:00,67.9,53.0,29.91,SW,225,2.0,10.0,59,0.00,,,0.00,WeatherCatV1.21B27,2013-08-13 20:50:00,
2013-08-13 16:55:00,68.0,54.0,29.91,West,270,3.0,13.0,61,0.00,,,0.00,WeatherCatV1.21B27,2013-08-13 20:55:00,
2013-08-13 17:00:00,67.7,53.3,29.91,West,270,2.0,6.0,60,0.00,,,0.00,WeatherCatV1.21B27,2013-08-13 21:00:00,
2013-08-13 17:05:00,68.0,54.9,29.92,West,270,1.0,6.0,63,0.00,,,0.00,WeatherCatV1.21B27,2013-08-13 21:05:00,
2013-08-13 17:10:00,67.5,53.1,29.91,West,270,3.0,11.0,60,0.00,,,0.00,WeatherCatV1.21B27,2013-08-13 21:10:00,
2013-08-13 17:15:00,66.9,53.0,29.92,WNW,292,2.0,12.0,61,0.00,,,0.00,WeatherCatV1.21B27,2013-08-13 21:15:00,
2013-08-13 17:20:00,67.6,54.1,29.92,WSW,248,2.0,6.0,62,0.00,,,0.00,WeatherCatV1.21B27,2013-08-13 21:20:00,
2013-08-13 17:25:00,67.5,53.1,29.91,WNW,292,2.0,7.0,60,0.00,,,0.00,WeatherCatV1.21B27,2013-08-13 21:25:00,
2013-08-13 17:30:00,66.9,53.0,29.92,West,270,2.0,6.0,61,0.00,,,0.00,WeatherCatV1.21B27,2013-08-13 21:30:00,
2013-08-13 17:35:00,66.2,52.8,29.92,WSW,248,1.0,5.0,62,0.00,,,0.00,WeatherCatV1.21B27,2013-08-13 21:35:00,
2013-08-13 17:40:00,65.9,52.9,29.92,SW,225,1.0,4.0,63,0.00,,,0.00,WeatherCatV1.21B27,2013-08-13 21:40:00,
2013-08-13 17:45:00,65.7,52.8,29.92,West,270,2.0,8.0,63,0.00,,,0.00,WeatherCatV1.21B27,2013-08-13 21:45:00,
2013-08-13 17:50:00,65.7,53.6,29.92,WSW,248,1.0,6.0,65,0.00,,,0.00,WeatherCatV1.21B27,2013-08-13 21:50:00,
2013-08-13 17:55:00,66.2,53.2,29.92,WSW,248,2.0,6.0,63,0.00,,,0.00,WeatherCatV1.21B27,2013-08-13 21:55:00,
2013-08-13 18:00:00,66.8,53.3,29.92,WSW,248,2.0,6.0,62,0.00,,,0.00,WeatherCatV1.21B27,2013-08-13 22:00:00,
2013-08-13 18:05:00,66.8,53.3,29.92,WSW,248,1.0,4.0,62,0.00,,,0.00,WeatherCatV1.21B27,2013-08-13 22:05:00,
2013-08-13 18:10:00,66.5,53.5,29.92,SW,225,1.0,6.0,63,0.00,,,0.00,WeatherCatV1.21B27,2013-08-13 22:10:00,
2013-08-13 18:15:00,66.5,52.6,29.92,West,270,2.0,7.0,61,0.00,,,0.00,WeatherCatV1.21B27,2013-08-13 22:15:00,
2013-08-13 18:20:00,66.1,52.7,29.92,West,270,1.0,6.0,62,0.00,,,0.00,WeatherCatV1.21B27,2013-08-13 22:20:00,
2013-08-13 18:25:00,65.7,52.3,29.92,West,270,2.0,11.0,62,0.00,,,0.00,WeatherCatV1.21B27,2013-08-13 22:25:00,
2013-08-13 18:30:00,65.6,52.2,29.92,SW,225,2.0,9.0,62,0.00,,,0.00,WeatherCatV1.21B27,2013-08-13 22:30:00,
2013-08-13 18:35:00,65.2,51.4,29.93,WSW,248,2.0,7.0,61,0.00,,,0.00,WeatherCatV1.21B27,2013-08-13 22:35:00,
2013-08-13 18:40:00,65.2,51.4,29.92,WSW,248,2.0,10.0,61,0.00,,,0.00,WeatherCatV1.21B27,2013-08-13 22:40:00,
2013-08-13 18:45:00,65.2,51.0,29.92,SW,225,2.0,10.0,60,0.00,,,0.00,WeatherCatV1.21B27,2013-08-13 22:45:00,
2013-08-13 18:50:00,65.2,50.0,29.92,West,270,1.0,7.0,58,0.00,,,0.00,WeatherCatV1.21B27,2013-08-13 22:50:00,
2013-08-13 18:55:00,65.3,50.6,29.92,WSW,248,2.0,6.0,59,0.00,,,0.00,WeatherCatV1.21B27,2013-08-13 22:55:00,
2013-08-13 19:00:00,65.2,50.0,29.93,SSW,202,1.0,9.0,58,0.00,,,0.00,WeatherCatV1.21B27,2013-08-13 23:00:00,
2013-08-13 19:05:00,64.9,49.8,29.93,SW,225,2.0,10.0,58,0.00,,,0.00,WeatherCatV1.21B27,2013-08-13 23:05:00,
2013-08-13 19:10:00,64.6,50.0,29.93,NW,315,1.0,7.0,59,0.00,,,0.00,WeatherCatV1.21B27,2013-08-13 23:10:00,
2013-08-13 19:15:00,64.7,50.5,29.93,West,270,1.0,7.0,60,0.00,,,0.00,WeatherCatV1.21B27,2013-08-13 23:15:00,
2013-08-13 19:20:00,64.9,51.1,29.93,WSW,248,2.0,9.0,61,0.00,,,0.00,WeatherCatV1.21B27,2013-08-13 23:20:00,
2013-08-13 19:25:00,64.6,50.8,29.93,West,270,2.0,9.0,61,0.00,,,0.00,WeatherCatV1.21B27,2013-08-13 23:25:00,
2013-08-13 19:30:00,64.2,50.0,29.93,WNW,292,2.0,13.0,60,0.00,,,0.00,WeatherCatV1.21B27,2013-08-13 23:30:00,
2013-08-13 19:35:00,64.1,49.9,29.93,WSW,248,1.0,4.0,60,0.00,,,0.00,WeatherCatV1.21B27,2013-08-13 23:35:00,
2013-08-13 19:40:00,64.0,50.3,29.93,West,270,1.0,10.0,61,0.00,,,0.00,WeatherCatV1.21B27,2013-08-13 23:40:00,
2013-08-13 19:45:00,63.7,50.4,29.93,WSW,248,1.0,7.0,62,0.00,,,0.00,WeatherCatV1.21B27,2013-08-13 23:45:00,
2013-08-13 19:50:00,63.5,50.2,29.94,WSW,248,1.0,7.0,62,0.00,,,0.00,WeatherCatV1.21B27,2013-08-13 23:50:00,
2013-08-13 19:55:00,63.3,49.2,29.94,WNW,297,1.0,9.0,60,0.00,,,0.00,WeatherCatV1.21B27,2013-08-13 23:55:00,
2013-08-13 20:05:00,63.3,49.2,29.94,WNW,297,1.0,6.0,60,0.00,,,0.00,WeatherCatV1.21B27,2013-08-14 00:05:00,
2013-08-13 20:10:00,63.3,49.2,29.94,SW,224,0.0,3.0,60,0.00,,,0.97,WeatherCatV1.21B27,2013-08-14 00:10:00,
2013-08-13 20:15:00,63.1,49.0,29.94,SSW,207,4.0,4.0,60,0.00,,,0.97,WeatherCatV1.21B27,2013-08-14 00:15:00,
2013-08-13 20:20:00,63.1,48.5,29.94,ESE,114,0.0,9.0,59,0.00,,,0.97,WeatherCatV1.21B27,2013-08-14 00:20:00,
2013-08-13 20:25:00,63.2,50.0,29.94,NW,307,1.0,6.0,62,0.00,,,0.97,WeatherCatV1.21B27,2013-08-14 00:25:00,
2013-08-13 20:30:00,63.1,49.4,29.94,WNW,302,3.0,6.0,61,0.00,,,0.97,WeatherCatV1.21B27,2013-08-14 00:30:00,
2013-08-13 20:35:00,63.0,49.8,29.94,West,261,0.0,0.0,62,0.00,,,0.97,WeatherCatV1.21B27,2013-08-14 00:35:00,
2013-08-13 20:40:00,63.0,49.3,29.94,SW,223,0.0,7.0,61,0.00,,,0.97,WeatherCatV1.21B27,2013-08-14 00:40:00,
2013-08-13 20:45:00,62.9,49.7,29.94,SW,227,3.0,5.0,62,0.00,,,0.97,WeatherCatV1.21B27,2013-08-14 00:45:00,
2013-08-13 20:51:00,62.7,49.9,29.94,West,260,0.0,10.0,63,0.00,,,0.97,WeatherCatV1.21B27,2013-08-14 00:51:00,
2013-08-13 20:56:00,62.6,50.2,29.94,NE,49,0.0,1.0,64,0.00,,,0.97,WeatherCatV1.21B27,2013-08-14 00:56:00,
2013-08-13 21:01:00,62.5,50.6,29.94,WSW,251,0.0,4.0,65,0.00,,,0.97,WeatherCatV1.21B27,2013-08-14 01:01:00,
2013-08-13 21:06:00,62.4,49.6,29.95,WSW,240,0.0,0.0,63,0.00,,,0.97,WeatherCatV1.21B27,2013-08-14 01:06:00,
2013-08-13 21:11:00,62.4,49.6,29.95,WSW,238,0.0,5.0,63,0.00,,,0.97,WeatherCatV1.21B27,2013-08-14 01:11:00,
2013-08-13 21:16:00,62.4,49.6,29.95,West,272,1.0,5.0,63,0.00,,,0.97,WeatherCatV1.21B27,2013-08-14 01:16:00,
2013-08-13 21:21:00,62.5,49.7,29.95,WSW,241,0.0,3.0,63,0.00,,,0.97,WeatherCatV1.21B27,2013-08-14 01:21:00,
2013-08-13 21:26:00,62.5,49.3,29.95,SSW,205,0.0,4.0,62,0.00,,,0.97,WeatherCatV1.21B27,2013-08-14 01:26:00,
2013-08-13 21:31:00,62.4,48.8,29.95,WSW,252,5.0,5.0,61,0.00,,,0.97,WeatherCatV1.21B27,2013-08-14 01:31:00,
2013-08-13 21:36:00,62.3,47.8,29.95,WSW,255,2.0,6.0,59,0.00,,,0.97,WeatherCatV1.21B27,2013-08-14 01:36:00,
2013-08-13 21:41:00,62.3,48.2,29.96,WSW,240,0.0,1.0,60,0.00,,,0.97,WeatherCatV1.21B27,2013-08-14 01:41:00,
2013-08-13 21:46:00,62.1,48.5,29.96,WNW,288,0.0,3.0,61,0.00,,,0.97,WeatherCatV1.21B27,2013-08-14 01:46:00,
2013-08-13 21:51:00,62.1,48.9,29.96,SW,229,0.0,5.0,62,0.00,,,0.97,WeatherCatV1.21B27,2013-08-14 01:51:00,
2013-08-13 21:56:00,62.2,49.0,29.96,West,270,0.0,5.0,62,0.00,,,0.97,WeatherCatV1.21B27,2013-08-14 01:56:00,
2013-08-13 22:01:00,62.3,49.1,29.96,West,261,2.0,4.0,62,0.00,,,0.97,WeatherCatV1.21B27,2013-08-14 02:01:00,
2013-08-13 22:06:00,62.3,49.1,29.96,SW,225,3.0,8.0,62,0.00,,,0.97,WeatherCatV1.21B27,2013-08-14 02:06:00,
2013-08-13 22:11:00,62.2,49.4,29.96,West,269,0.0,0.0,63,0.00,,,0.97,WeatherCatV1.21B27,2013-08-14 02:11:00,
2013-08-13 22:16:00,62.2,49.4,29.96,South,189,0.0,0.0,63,0.00,,,0.97,WeatherCatV1.21B27,2013-08-14 02:16:00,
2013-08-13 22:21:00,62.0,48.8,29.96,SW,234,0.0,3.0,62,0.00,,,0.97,WeatherCatV1.21B27,2013-08-14 02:21:00,
2013-08-13 22:26:00,61.9,48.7,29.96,SW,230,0.0,0.0,62,0.00,,,0.97,WeatherCatV1.21B27,2013-08-14 02:26:00,
2013-08-13 22:31:00,61.7,48.5,29.96,WSW,238,2.0,2.0,62,0.00,,,0.97,WeatherCatV1.21B27,2013-08-14 02:31:00,
2013-08-13 22:36:00,61.7,48.5,29.96,SW,227,0.0,0.0,62,0.00,,,0.97,WeatherCatV1.21B27,2013-08-14 02:36:00,
2013-08-13 22:41:00,61.7,48.5,29.96,West,269,0.0,4.0,62,0.00,,,0.97,WeatherCatV1.21B27,2013-08-14 02:41:00,
2013-08-13 22:46:00,61.9,48.7,29.96,WNW,295,0.0,3.0,62,0.00,,,0.97,WeatherCatV1.21B27,2013-08-14 02:46:00,
2013-08-13 22:51:00,61.9,48.7,29.96,SW,232,0.0,0.0,62,0.00,,,0.97,WeatherCatV1.21B27,2013-08-14 02:51:00,
2013-08-13 22:56:00,62.0,48.8,29.96,SW,222,0.0,3.0,62,0.00,,,0.97,WeatherCatV1.21B27,2013-08-14 02:56:00,
2013-08-13 23:02:00,62.0,49.3,29.95,NW,325,0.0,2.0,63,0.00,,,0.97,WeatherCatV1.21B27,2013-08-14 03:02:00,
2013-08-13 23:07:00,62.1,49.3,29.96,SW,233,0.0,4.0,63,0.00,,,0.97,WeatherCatV1.21B27,2013-08-14 03:07:00,
2013-08-13 23:12:00,62.3,49.5,29.95,West,267,3.0,5.0,63,0.00,,,0.97,WeatherCatV1.21B27,2013-08-14 03:12:00,
2013-08-13 23:17:00,62.4,48.8,29.96,West,263,0.0,2.0,61,0.00,,,0.97,WeatherCatV1.21B27,2013-08-14 03:17:00,
2013-08-13 23:22:00,62.4,48.3,29.95,WSW,246,2.0,6.0,60,0.00,,,0.97,WeatherCatV1.21B27,2013-08-14 03:22:00,
2013-08-13 23:27:00,62.4,48.8,29.95,SW,219,3.0,3.0,61,0.00,,,0.97,WeatherCatV1.21B27,2013-08-14 03:27:00,
2013-08-13 23:32:00,62.5,48.9,29.95,West,259,0.0,0.0,61,0.00,,,0.97,WeatherCatV1.21B27,2013-08-14 03:32:00,
2013-08-13 23:37:00,62.6,49.4,29.95,SW,236,2.0,4.0,62,0.00,,,0.97,WeatherCatV1.21B27,2013-08-14 03:37:00,
2013-08-13 23:42:00,62.6,49.4,29.95,WSW,240,0.0,4.0,62,0.00,,,0.97,WeatherCatV1.21B27,2013-08-14 03:42:00,
2013-08-13 23:47:00,62.7,49.9,29.95,WSW,256,0.0,1.0,63,0.00,,,0.97,WeatherCatV1.21B27,2013-08-14 03:47:00,
2013-08-13 23:52:00,62.7,49.9,29.95,SW,235,2.0,6.0,63,0.00,,,0.97,WeatherCatV1.21B27,2013-08-14 03:52:00,
2013-08-13 23:57:00,62.7,50.3,29.95,West,275,3.0,6.0,64,0.00,,,0.97,WeatherCatV1.21B27,2013-08-14 03:57:00,